Newnan, GA

3:08 AM EDT on May 29, 2015 (GMT -0400)
Newnan | | Change Station
CLOSE
Current Station
Personal Weather Station
Location: Newnan, GA
Elevation: 873 ft
Nearby Weather Stations

Elev 873 ft 33.42 °N, 84.81 °W | Updated 22 seconds ago

Overcast
Overcast
64.0 °F
Feels Like 64.0 °F
N
0.0
Wind Variable Wind from SSW

Today
High -- | Low -- °F
--% Chance of Precip.
Yesterday
High -- | Low -- °F
Precip. -- in
6:31 AM 8:42 PM
Waxing Gibbous, 81% visible
Pressure 30.14 in
Visibility 9.0 miles
Clouds Few 700 ft
Dew Point 64 °F
Humidity 99%
Rainfall 0.00 in
Snow Depth Not available.
UV 0 out of 12
Pollen 4.20 out of 12
Air Quality Not available.
Flu Activity Sporadic
METAR KFFC 290653Z AUTO 00000KT 9SM FEW007 19/18 A3015 RMK AO2 SLP204 T01940183 $

More Conditions Fewer Conditions

Pressure 30.14 in
Visibility 9.0 miles
Clouds Few 700 ft
Dew Point 64 °F
Humidity 99%
Rainfall 0.00 in
Snow Depth Not available.
UV 0 out of 12
Pollen 4.20 out of 12
Air Quality Not available.
Flu Activity Sporadic
METAR KFFC 290653Z AUTO 00000KT 9SM FEW007 19/18 A3015 RMK AO2 SLP204 T01940183 $

More Conditions Fewer Conditions

10-Day Weather Forecast

Almanac

Astronomy

May. 29, 2015 Rise Set
Actual Time
Civil Twilight
Nautical Twilight
Astronomical Twilight
Moon
Length of Visible Light
Length of Day
Tomorrow will be .
, % of the Moon is Illuminated

Today's Extremes

State Highs State Lows

Community

WunderPhotos

Upload Photos

1,825,215 photos uploaded!

WunderBlogs® & News

Nearby

Air Quality

  Air Quality AQ Index Pollutant
Not available.

Snow Depth

Station Depth Elevation

Earthquake Activity

City Distance Mag. Time & Date
Minimum magnitude displayed is 2.5.

Coastal Water Temperatures

Place Temperature

Stations

Nearby Weather Stations

Station Location Temp. Windchill Dew Point Humidity Wind Precip. Elev Updated Type